Terminal Aerodrome Forecast
Issued by NWS

Home | Current Version | Previous Version | Text Only | Print | Product List | Glossary On
Versions: 1 2 3 4 5 6 7 8 9 10 11 12 13 14 15 16 17 18 19 20 21 22 23 24
000
FTPA31 PHFO 311100
TAFITO
TAF
PHTO 311135Z 3112/0112 24005KT P6SM VCSH SCT025 BKN045
      TEMPO 3112/3116 -SHRA BKN025
     FM312000 06008KT P6SM VCSH SCT025 BKN035
     FM010600 24005KT P6SM -SHRA SCT020 BKN035=

USA.gov is the U.S. government's official web portal to all federal, state and local government web resources and services.